RJTE(METAR)
05/30 16:00
METAR RJTE 300700Z 18005KT 100V240 9999 FEW030 BKN230 24/17 Q1020
RMK 1CU030 A3013=
戻る
トップページへ戻る
IMOC Co,.Ltd.